sensor_id;sensor_type;location;lat;lon;timestamp;temperature;humidity
13848;DHT22;6994;49.752;6.094;2022-11-20T00:00:39;9.00;99.90
13848;DHT22;6994;49.752;6.094;2022-11-20T00:03:07;9.00;99.90
13848;DHT22;6994;49.752;6.094;2022-11-20T00:05:34;8.90;99.90
13848;DHT22;6994;49.752;6.094;2022-11-20T00:08:01;8.90;99.90
13848;DHT22;6994;49.752;6.094;2022-11-20T00:10:28;8.80;99.90
13848;DHT22;6994;49.752;6.094;2022-11-20T00:12:57;9.00;99.90
13848;DHT22;6994;49.752;6.094;2022-11-20T00:15:23;9.00;99.90
13848;DHT22;6994;49.752;6.094;2022-11-20T00:17:50;8.90;99.90
13848;DHT22;6994;49.752;6.094;2022-11-20T00:20:17;8.80;99.90
13848;DHT22;6994;49.752;6.094;2022-11-20T00:22:44;9.00;99.90
13848;DHT22;6994;49.752;6.094;2022-11-20T00:25:11;9.00;99.90
13848;DHT22;6994;49.752;6.094;2022-11-20T00:27:39;9.10;99.90
13848;DHT22;6994;49.752;6.094;2022-11-20T00:30:06;9.10;99.90
13848;DHT22;6994;49.752;6.094;2022-11-20T00:32:33;9.00;99.90
13848;DHT22;6994;49.752;6.094;2022-11-20T00:35:00;8.80;99.90
13848;DHT22;6994;49.752;6.094;2022-11-20T00:37:27;8.70;99.90
13848;DHT22;6994;49.752;6.094;2022-11-20T00:39:55;8.70;99.90
13848;DHT22;6994;49.752;6.094;2022-11-20T00:42:22;8.60;99.90
13848;DHT22;6994;49.752;6.094;2022-11-20T00:44:49;8.60;99.90
13848;DHT22;6994;49.752;6.094;2022-11-20T00:47:16;8.50;99.90
13848;DHT22;6994;49.752;6.094;2022-11-20T00:49:43;8.50;99.90
13848;DHT22;6994;49.752;6.094;2022-11-20T00:52:11;8.40;99.90
13848;DHT22;6994;49.752;6.094;2022-11-20T00:54:39;8.40;99.90
13848;DHT22;6994;49.752;6.094;2022-11-20T00:57:06;8.40;99.90
13848;DHT22;6994;49.752;6.094;2022-11-20T00:59:33;8.30;99.90
13848;DHT22;6994;49.752;6.094;2022-11-20T01:02:00;8.30;99.90
13848;DHT22;6994;49.752;6.094;2022-11-20T01:04:27;8.30;99.90
13848;DHT22;6994;49.752;6.094;2022-11-20T01:06:55;8.30;99.90
13848;DHT22;6994;49.752;6.094;2022-11-20T01:09:23;8.30;99.90
13848;DHT22;6994;49.752;6.094;2022-11-20T01:11:51;8.30;99.90
13848;DHT22;6994;49.752;6.094;2022-11-20T01:14:20;8.30;99.90
13848;DHT22;6994;49.752;6.094;2022-11-20T01:16:51;8.30;99.90
13848;DHT22;6994;49.752;6.094;2022-11-20T01:19:17;8.30;99.90
13848;DHT22;6994;49.752;6.094;2022-11-20T01:21:42;8.30;99.90
13848;DHT22;6994;49.752;6.094;2022-11-20T01:24:12;8.50;99.90
13848;DHT22;6994;49.752;6.094;2022-11-20T01:26:40;8.50;99.90
13848;DHT22;6994;49.752;6.094;2022-11-20T01:29:07;8.50;99.90
13848;DHT22;6994;49.752;6.094;2022-11-20T01:31:35;8.50;99.90
13848;DHT22;6994;49.752;6.094;2022-11-20T01:34:01;8.40;99.90
13848;DHT22;6994;49.752;6.094;2022-11-20T01:36:29;8.40;99.90
13848;DHT22;6994;49.752;6.094;2022-11-20T01:38:56;8.40;99.90
13848;DHT22;6994;49.752;6.094;2022-11-20T01:41:23;8.40;99.90
13848;DHT22;6994;49.752;6.094;2022-11-20T01:44:08;8.30;99.90
13848;DHT22;6994;49.752;6.094;2022-11-20T01:46:42;8.40;99.90
13848;DHT22;6994;49.752;6.094;2022-11-20T01:49:17;8.30;99.90
13848;DHT22;6994;49.752;6.094;2022-11-20T01:51:52;8.40;99.90
13848;DHT22;6994;49.752;6.094;2022-11-20T01:54:22;8.30;99.90
13848;DHT22;6994;49.752;6.094;2022-11-20T01:56:47;8.30;99.90
13848;DHT22;6994;49.752;6.094;2022-11-20T01:59:15;8.50;99.90
13848;DHT22;6994;49.752;6.094;2022-11-20T02:01:41;8.60;99.90
13848;DHT22;6994;49.752;6.094;2022-11-20T02:04:08;8.60;99.90
13848;DHT22;6994;49.752;6.094;2022-11-20T02:06:38;8.50;99.90
13848;DHT22;6994;49.752;6.094;2022-11-20T02:09:03;8.70;99.90
13848;DHT22;6994;49.752;6.094;2022-11-20T02:11:30;8.70;99.90
13848;DHT22;6994;49.752;6.094;2022-11-20T02:13:57;8.90;99.90
13848;DHT22;6994;49.752;6.094;2022-11-20T02:16:33;8.90;99.90
13848;DHT22;6994;49.752;6.094;2022-11-20T02:18:59;8.70;99.90
13848;DHT22;6994;49.752;6.094;2022-11-20T02:24:20;8.60;99.90
13848;DHT22;6994;49.752;6.094;2022-11-20T02:26:59;8.50;99.90
13848;DHT22;6994;49.752;6.094;2022-11-20T02:32:33;8.50;99.90
13848;DHT22;6994;49.752;6.094;2022-11-20T02:37:45;8.80;99.90
13848;DHT22;6994;49.752;6.094;2022-11-20T02:40:12;8.60;99.90
13848;DHT22;6994;49.752;6.094;2022-11-20T02:42:39;8.50;99.90
13848;DHT22;6994;49.752;6.094;2022-11-20T02:45:06;8.40;99.90
13848;DHT22;6994;49.752;6.094;2022-11-20T02:47:33;8.40;99.90
13848;DHT22;6994;49.752;6.094;2022-11-20T02:50:01;8.50;99.90
13848;DHT22;6994;49.752;6.094;2022-11-20T02:52:29;8.50;99.90
13848;DHT22;6994;49.752;6.094;2022-11-20T02:54:57;8.40;99.90
13848;DHT22;6994;49.752;6.094;2022-11-20T02:57:24;8.40;99.90
13848;DHT22;6994;49.752;6.094;2022-11-20T02:59:51;8.40;99.90
13848;DHT22;6994;49.752;6.094;2022-11-20T03:02:19;8.30;99.90
13848;DHT22;6994;49.752;6.094;2022-11-20T03:04:46;8.30;99.90
13848;DHT22;6994;49.752;6.094;2022-11-20T03:07:13;8.20;99.90
13848;DHT22;6994;49.752;6.094;2022-11-20T03:09:40;8.20;99.90
13848;DHT22;6994;49.752;6.094;2022-11-20T03:12:08;8.20;99.90
13848;DHT22;6994;49.752;6.094;2022-11-20T03:14:35;8.10;99.90
13848;DHT22;6994;49.752;6.094;2022-11-20T03:17:02;8.10;99.90
13848;DHT22;6994;49.752;6.094;2022-11-20T03:19:29;8.10;99.90
13848;DHT22;6994;49.752;6.094;2022-11-20T03:21:56;8.00;99.90
13848;DHT22;6994;49.752;6.094;2022-11-20T03:24:23;8.10;99.90
13848;DHT22;6994;49.752;6.094;2022-11-20T03:26:51;8.20;99.90
13848;DHT22;6994;49.752;6.094;2022-11-20T03:29:18;8.30;99.90
13848;DHT22;6994;49.752;6.094;2022-11-20T03:31:45;8.30;99.90
13848;DHT22;6994;49.752;6.094;2022-11-20T03:34:12;8.30;99.90
13848;DHT22;6994;49.752;6.094;2022-11-20T03:36:40;8.20;99.90
13848;DHT22;6994;49.752;6.094;2022-11-20T03:39:07;8.20;99.90
13848;DHT22;6994;49.752;6.094;2022-11-20T03:41:38;8.20;99.90
13848;DHT22;6994;49.752;6.094;2022-11-20T03:44:05;8.20;99.90
13848;DHT22;6994;49.752;6.094;2022-11-20T03:46:31;8.20;99.90
13848;DHT22;6994;49.752;6.094;2022-11-20T03:48:58;8.10;99.90
13848;DHT22;6994;49.752;6.094;2022-11-20T03:51:27;8.10;99.90
13848;DHT22;6994;49.752;6.094;2022-11-20T03:53:54;8.10;99.90
13848;DHT22;6994;49.752;6.094;2022-11-20T03:56:22;8.10;99.90
13848;DHT22;6994;49.752;6.094;2022-11-20T03:58:47;8.10;99.90
13848;DHT22;6994;49.752;6.094;2022-11-20T04:01:16;8.30;99.90
13848;DHT22;6994;49.752;6.094;2022-11-20T04:03:42;8.40;99.90
13848;DHT22;6994;49.752;6.094;2022-11-20T04:06:10;8.40;99.90
13848;DHT22;6994;49.752;6.094;2022-11-20T04:08:36;8.40;99.90
13848;DHT22;6994;49.752;6.094;2022-11-20T04:11:13;8.30;99.90
13848;DHT22;6994;49.752;6.094;2022-11-20T04:13:40;8.50;99.90
13848;DHT22;6994;49.752;6.094;2022-11-20T04:16:08;8.50;99.90
13848;DHT22;6994;49.752;6.094;2022-11-20T04:18:34;8.50;99.90
13848;DHT22;6994;49.752;6.094;2022-11-20T04:21:02;8.50;99.90
13848;DHT22;6994;49.752;6.094;2022-11-20T04:23:29;8.40;99.90
13848;DHT22;6994;49.752;6.094;2022-11-20T04:26:06;8.40;99.90
13848;DHT22;6994;49.752;6.094;2022-11-20T04:28:33;8.30;99.90
13848;DHT22;6994;49.752;6.094;2022-11-20T04:31:04;8.30;99.90
13848;DHT22;6994;49.752;6.094;2022-11-20T04:33:30;8.20;99.90
13848;DHT22;6994;49.752;6.094;2022-11-20T04:36:01;8.20;99.90
13848;DHT22;6994;49.752;6.094;2022-11-20T04:38:24;8.20;99.90
13848;DHT22;6994;49.752;6.094;2022-11-20T04:40:55;8.20;99.90
13848;DHT22;6994;49.752;6.094;2022-11-20T04:43:19;8.10;99.90
13848;DHT22;6994;49.752;6.094;2022-11-20T04:45:53;8.10;99.90
13848;DHT22;6994;49.752;6.094;2022-11-20T04:48:20;8.10;99.90
13848;DHT22;6994;49.752;6.094;2022-11-20T04:50:47;8.10;99.90
13848;DHT22;6994;49.752;6.094;2022-11-20T04:53:14;8.10;99.90
13848;DHT22;6994;49.752;6.094;2022-11-20T04:55:41;8.30;99.90
13848;DHT22;6994;49.752;6.094;2022-11-20T04:58:08;8.30;99.90
13848;DHT22;6994;49.752;6.094;2022-11-20T05:00:36;8.30;99.90
13848;DHT22;6994;49.752;6.094;2022-11-20T05:03:03;8.20;99.90
13848;DHT22;6994;49.752;6.094;2022-11-20T05:05:30;8.10;99.90
13848;DHT22;6994;49.752;6.094;2022-11-20T05:07:58;8.10;99.90
13848;DHT22;6994;49.752;6.094;2022-11-20T05:10:26;8.10;99.90
13848;DHT22;6994;49.752;6.094;2022-11-20T05:12:53;8.00;99.90
13848;DHT22;6994;49.752;6.094;2022-11-20T05:15:20;8.00;99.90
13848;DHT22;6994;49.752;6.094;2022-11-20T05:17:50;8.00;99.90
13848;DHT22;6994;49.752;6.094;2022-11-20T05:20:18;8.00;99.90
13848;DHT22;6994;49.752;6.094;2022-11-20T05:22:45;8.10;99.90
13848;DHT22;6994;49.752;6.094;2022-11-20T05:25:12;8.10;99.90
13848;DHT22;6994;49.752;6.094;2022-11-20T05:27:39;8.10;99.90
13848;DHT22;6994;49.752;6.094;2022-11-20T05:30:06;8.30;99.90
13848;DHT22;6994;49.752;6.094;2022-11-20T05:32:34;8.40;99.90
13848;DHT22;6994;49.752;6.094;2022-11-20T05:35:01;8.40;99.90
13848;DHT22;6994;49.752;6.094;2022-11-20T05:37:29;8.30;99.90
13848;DHT22;6994;49.752;6.094;2022-11-20T05:39:56;8.30;99.90
13848;DHT22;6994;49.752;6.094;2022-11-20T05:42:23;8.30;99.90
13848;DHT22;6994;49.752;6.094;2022-11-20T05:45:00;8.20;99.90
13848;DHT22;6994;49.752;6.094;2022-11-20T05:47:27;8.20;99.90
13848;DHT22;6994;49.752;6.094;2022-11-20T05:49:54;8.20;99.90
13848;DHT22;6994;49.752;6.094;2022-11-20T05:52:21;8.20;99.90
13848;DHT22;6994;49.752;6.094;2022-11-20T05:54:48;8.20;99.90
13848;DHT22;6994;49.752;6.094;2022-11-20T05:57:15;8.20;99.90
13848;DHT22;6994;49.752;6.094;2022-11-20T05:59:43;8.20;99.90
13848;DHT22;6994;49.752;6.094;2022-11-20T06:02:11;8.20;99.90
13848;DHT22;6994;49.752;6.094;2022-11-20T06:04:38;8.20;99.90
13848;DHT22;6994;49.752;6.094;2022-11-20T06:07:05;8.20;99.90
13848;DHT22;6994;49.752;6.094;2022-11-20T06:09:32;8.30;99.90
13848;DHT22;6994;49.752;6.094;2022-11-20T06:11:59;8.50;99.90
13848;DHT22;6994;49.752;6.094;2022-11-20T06:14:27;8.60;99.90
13848;DHT22;6994;49.752;6.094;2022-11-20T06:16:54;8.60;99.90
13848;DHT22;6994;49.752;6.094;2022-11-20T06:19:21;8.50;99.90
13848;DHT22;6994;49.752;6.094;2022-11-20T06:21:48;8.70;99.90
13848;DHT22;6994;49.752;6.094;2022-11-20T06:24:16;8.80;99.90
13848;DHT22;6994;49.752;6.094;2022-11-20T06:26:43;8.70;99.90
13848;DHT22;6994;49.752;6.094;2022-11-20T06:29:10;8.70;99.90
13848;DHT22;6994;49.752;6.094;2022-11-20T06:31:38;8.80;99.90
13848;DHT22;6994;49.752;6.094;2022-11-20T06:34:05;8.80;99.90
13848;DHT22;6994;49.752;6.094;2022-11-20T06:36:32;9.00;99.90
13848;DHT22;6994;49.752;6.094;2022-11-20T06:39:00;8.90;99.90
13848;DHT22;6994;49.752;6.094;2022-11-20T06:41:27;8.90;99.90
13848;DHT22;6994;49.752;6.094;2022-11-20T06:43:55;9.10;99.90
13848;DHT22;6994;49.752;6.094;2022-11-20T06:46:22;9.10;99.90
13848;DHT22;6994;49.752;6.094;2022-11-20T06:48:49;9.30;99.90
13848;DHT22;6994;49.752;6.094;2022-11-20T06:51:16;9.20;99.90
13848;DHT22;6994;49.752;6.094;2022-11-20T06:53:43;9.10;99.90
13848;DHT22;6994;49.752;6.094;2022-11-20T06:56:11;9.00;99.90
13848;DHT22;6994;49.752;6.094;2022-11-20T06:58:38;8.90;99.90
13848;DHT22;6994;49.752;6.094;2022-11-20T07:01:11;8.80;99.90
13848;DHT22;6994;49.752;6.094;2022-11-20T07:03:38;8.70;99.90
13848;DHT22;6994;49.752;6.094;2022-11-20T07:06:05;8.70;99.90
13848;DHT22;6994;49.752;6.094;2022-11-20T07:08:32;8.70;99.90
13848;DHT22;6994;49.752;6.094;2022-11-20T07:11:03;8.60;99.90
13848;DHT22;6994;49.752;6.094;2022-11-20T07:13:29;8.60;99.90
13848;DHT22;6994;49.752;6.094;2022-11-20T07:16:03;8.80;99.90
13848;DHT22;6994;49.752;6.094;2022-11-20T07:18:29;8.90;99.90
13848;DHT22;6994;49.752;6.094;2022-11-20T07:21:00;8.80;99.90
13848;DHT22;6994;49.752;6.094;2022-11-20T07:23:24;8.80;99.90
13848;DHT22;6994;49.752;6.094;2022-11-20T07:25:51;8.80;99.90
13848;DHT22;6994;49.752;6.094;2022-11-20T07:28:18;8.70;99.90
13848;DHT22;6994;49.752;6.094;2022-11-20T07:30:51;8.70;99.90
13848;DHT22;6994;49.752;6.094;2022-11-20T07:33:18;8.60;99.90
13848;DHT22;6994;49.752;6.094;2022-11-20T07:35:45;8.60;99.90
13848;DHT22;6994;49.752;6.094;2022-11-20T07:38:13;8.60;99.90
13848;DHT22;6994;49.752;6.094;2022-11-20T07:40:40;8.60;99.90
13848;DHT22;6994;49.752;6.094;2022-11-20T07:43:07;8.60;99.90
13848;DHT22;6994;49.752;6.094;2022-11-20T07:45:34;8.80;99.90
13848;DHT22;6994;49.752;6.094;2022-11-20T07:48:01;8.90;99.90
13848;DHT22;6994;49.752;6.094;2022-11-20T07:50:29;8.90;99.90
13848;DHT22;6994;49.752;6.094;2022-11-20T07:53:03;8.90;99.90
13848;DHT22;6994;49.752;6.094;2022-11-20T07:55:29;8.90;99.90
13848;DHT22;6994;49.752;6.094;2022-11-20T07:57:57;8.90;99.90
13848;DHT22;6994;49.752;6.094;2022-11-20T08:00:24;8.90;99.90
13848;DHT22;6994;49.752;6.094;2022-11-20T08:02:52;8.80;99.90
13848;DHT22;6994;49.752;6.094;2022-11-20T08:05:19;8.80;99.90
13848;DHT22;6994;49.752;6.094;2022-11-20T08:07:46;8.80;99.90
13848;DHT22;6994;49.752;6.094;2022-11-20T08:10:14;8.70;99.90
13848;DHT22;6994;49.752;6.094;2022-11-20T08:12:52;8.70;99.90
13848;DHT22;6994;49.752;6.094;2022-11-20T08:15:29;8.80;99.90
13848;DHT22;6994;49.752;6.094;2022-11-20T08:18:05;8.80;99.90
13848;DHT22;6994;49.752;6.094;2022-11-20T08:20:32;8.70;99.90
13848;DHT22;6994;49.752;6.094;2022-11-20T08:23:00;8.60;99.90
13848;DHT22;6994;49.752;6.094;2022-11-20T08:25:27;8.40;99.90
13848;DHT22;6994;49.752;6.094;2022-11-20T08:27:54;8.30;99.90
13848;DHT22;6994;49.752;6.094;2022-11-20T08:30:22;8.10;99.90
13848;DHT22;6994;49.752;6.094;2022-11-20T08:32:50;8.10;99.90
13848;DHT22;6994;49.752;6.094;2022-11-20T08:35:18;8.00;99.90
13848;DHT22;6994;49.752;6.094;2022-11-20T08:37:46;8.00;99.90
13848;DHT22;6994;49.752;6.094;2022-11-20T08:40:14;8.00;99.90
13848;DHT22;6994;49.752;6.094;2022-11-20T08:42:50;8.00;99.90
13848;DHT22;6994;49.752;6.094;2022-11-20T08:45:17;8.10;99.90
13848;DHT22;6994;49.752;6.094;2022-11-20T08:47:44;8.10;99.90
13848;DHT22;6994;49.752;6.094;2022-11-20T08:50:12;8.10;99.90
13848;DHT22;6994;49.752;6.094;2022-11-20T08:52:38;8.20;99.90
13848;DHT22;6994;49.752;6.094;2022-11-20T08:55:06;8.30;99.90
13848;DHT22;6994;49.752;6.094;2022-11-20T08:57:36;8.40;99.90
13848;DHT22;6994;49.752;6.094;2022-11-20T09:00:06;8.60;99.90
13848;DHT22;6994;49.752;6.094;2022-11-20T09:02:33;8.60;99.90
13848;DHT22;6994;49.752;6.094;2022-11-20T09:05:00;8.60;99.90
13848;DHT22;6994;49.752;6.094;2022-11-20T09:07:27;8.60;99.90
13848;DHT22;6994;49.752;6.094;2022-11-20T09:09:54;8.60;99.90
13848;DHT22;6994;49.752;6.094;2022-11-20T09:12:22;8.50;99.90
13848;DHT22;6994;49.752;6.094;2022-11-20T09:14:50;8.30;99.90
13848;DHT22;6994;49.752;6.094;2022-11-20T09:17:17;8.30;99.90
13848;DHT22;6994;49.752;6.094;2022-11-20T09:19:44;8.20;99.90
13848;DHT22;6994;49.752;6.094;2022-11-20T09:22:11;8.20;99.90
13848;DHT22;6994;49.752;6.094;2022-11-20T09:24:38;8.20;99.90
13848;DHT22;6994;49.752;6.094;2022-11-20T09:27:06;8.10;99.90
13848;DHT22;6994;49.752;6.094;2022-11-20T09:29:33;8.10;99.90
13848;DHT22;6994;49.752;6.094;2022-11-20T09:32:01;8.20;99.90
13848;DHT22;6994;49.752;6.094;2022-11-20T09:34:29;8.60;99.90
13848;DHT22;6994;49.752;6.094;2022-11-20T09:36:56;8.60;99.90
13848;DHT22;6994;49.752;6.094;2022-11-20T09:39:23;8.80;99.90
13848;DHT22;6994;49.752;6.094;2022-11-20T09:44:57;9.00;99.90
13848;DHT22;6994;49.752;6.094;2022-11-20T09:47:33;9.20;99.90
13848;DHT22;6994;49.752;6.094;2022-11-20T09:54:54;9.40;99.90
13848;DHT22;6994;49.752;6.094;2022-11-20T09:57:23;9.50;99.90
13848;DHT22;6994;49.752;6.094;2022-11-20T09:59:59;9.60;99.90
13848;DHT22;6994;49.752;6.094;2022-11-20T10:02:28;9.70;99.90
13848;DHT22;6994;49.752;6.094;2022-11-20T10:05:02;9.80;99.90
13848;DHT22;6994;49.752;6.094;2022-11-20T10:07:36;9.70;99.90
13848;DHT22;6994;49.752;6.094;2022-11-20T10:10:01;9.60;99.90
13848;DHT22;6994;49.752;6.094;2022-11-20T10:12:55;9.60;99.90
13848;DHT22;6994;49.752;6.094;2022-11-20T10:18:23;9.60;99.90
13848;DHT22;6994;49.752;6.094;2022-11-20T10:20:50;9.50;99.90
13848;DHT22;6994;49.752;6.094;2022-11-20T10:23:28;9.50;99.90
13848;DHT22;6994;49.752;6.094;2022-11-20T10:25:59;9.50;99.90
13848;DHT22;6994;49.752;6.094;2022-11-20T10:31:23;9.50;99.90
13848;DHT22;6994;49.752;6.094;2022-11-20T10:33:43;9.90;99.90
13848;DHT22;6994;49.752;6.094;2022-11-20T10:38:43;10.00;99.90
13848;DHT22;6994;49.752;6.094;2022-11-20T10:41:12;10.10;99.90
13848;DHT22;6994;49.752;6.094;2022-11-20T10:44:03;10.10;99.90
13848;DHT22;6994;49.752;6.094;2022-11-20T10:46:20;10.20;99.90
13848;DHT22;6994;49.752;6.094;2022-11-20T10:48:47;10.20;99.90
13848;DHT22;6994;49.752;6.094;2022-11-20T10:53:47;10.40;99.90
13848;DHT22;6994;49.752;6.094;2022-11-20T10:56:28;10.50;99.90
13848;DHT22;6994;49.752;6.094;2022-11-20T11:01:56;10.70;99.90
13848;DHT22;6994;49.752;6.094;2022-11-20T11:04:29;10.80;99.90
13848;DHT22;6994;49.752;6.094;2022-11-20T11:06:51;10.80;99.90
13848;DHT22;6994;49.752;6.094;2022-11-20T11:09:24;10.80;99.90
13848;DHT22;6994;49.752;6.094;2022-11-20T11:11:48;10.70;99.90
13848;DHT22;6994;49.752;6.094;2022-11-20T11:14:16;11.00;99.90
13848;DHT22;6994;49.752;6.094;2022-11-20T11:16:49;11.20;99.90
13848;DHT22;6994;49.752;6.094;2022-11-20T11:19:16;11.20;99.90
13848;DHT22;6994;49.752;6.094;2022-11-20T11:21:50;11.20;99.90
13848;DHT22;6994;49.752;6.094;2022-11-20T11:27:00;11.10;99.90
13848;DHT22;6994;49.752;6.094;2022-11-20T11:29:26;11.00;99.90
13848;DHT22;6994;49.752;6.094;2022-11-20T11:32:17;10.80;99.90
13848;DHT22;6994;49.752;6.094;2022-11-20T11:34:20;10.70;99.90
13848;DHT22;6994;49.752;6.094;2022-11-20T11:36:55;10.60;99.90
13848;DHT22;6994;49.752;6.094;2022-11-20T11:39:19;10.60;99.90
13848;DHT22;6994;49.752;6.094;2022-11-20T11:41:46;10.50;99.90
13848;DHT22;6994;49.752;6.094;2022-11-20T11:44:17;10.50;99.90
13848;DHT22;6994;49.752;6.094;2022-11-20T11:47:02;10.40;99.90
13848;DHT22;6994;49.752;6.094;2022-11-20T11:49:29;10.40;99.90
13848;DHT22;6994;49.752;6.094;2022-11-20T11:54:54;10.50;99.90
13848;DHT22;6994;49.752;6.094;2022-11-20T12:00:03;10.20;99.90
13848;DHT22;6994;49.752;6.094;2022-11-20T12:05:02;9.80;99.90
13848;DHT22;6994;49.752;6.094;2022-11-20T12:07:39;9.70;99.90
13848;DHT22;6994;49.752;6.094;2022-11-20T12:10:07;9.60;99.90
13848;DHT22;6994;49.752;6.094;2022-11-20T12:12:36;9.50;99.90
13848;DHT22;6994;49.752;6.094;2022-11-20T12:15:03;9.50;99.90
13848;DHT22;6994;49.752;6.094;2022-11-20T12:17:30;9.50;99.90
13848;DHT22;6994;49.752;6.094;2022-11-20T12:19:57;9.50;99.90
13848;DHT22;6994;49.752;6.094;2022-11-20T12:22:51;9.50;99.90
13848;DHT22;6994;49.752;6.094;2022-11-20T12:25:26;9.50;99.90
13848;DHT22;6994;49.752;6.094;2022-11-20T12:30:32;9.50;99.90
13848;DHT22;6994;49.752;6.094;2022-11-20T12:36:06;9.50;99.90
13848;DHT22;6994;49.752;6.094;2022-11-20T12:41:21;9.60;99.90
13848;DHT22;6994;49.752;6.094;2022-11-20T12:44:06;9.60;99.90
13848;DHT22;6994;49.752;6.094;2022-11-20T12:57:32;9.80;99.90
13848;DHT22;6994;49.752;6.094;2022-11-20T13:05:37;10.00;99.90
13848;DHT22;6994;49.752;6.094;2022-11-20T13:08:03;10.00;99.90
13848;DHT22;6994;49.752;6.094;2022-11-20T13:10:35;9.90;99.90
13848;DHT22;6994;49.752;6.094;2022-11-20T13:15:53;9.80;99.90
13848;DHT22;6994;49.752;6.094;2022-11-20T13:18:16;10.00;99.90
13848;DHT22;6994;49.752;6.094;2022-11-20T13:20:43;9.90;99.90
13848;DHT22;6994;49.752;6.094;2022-11-20T13:23:10;9.80;99.90
13848;DHT22;6994;49.752;6.094;2022-11-20T13:25:38;9.70;99.90
13848;DHT22;6994;49.752;6.094;2022-11-20T13:28:05;9.60;99.90
13848;DHT22;6994;49.752;6.094;2022-11-20T13:30:32;9.50;99.90
13848;DHT22;6994;49.752;6.094;2022-11-20T13:35:32;9.30;99.90
13848;DHT22;6994;49.752;6.094;2022-11-20T13:38:09;9.20;99.90
13848;DHT22;6994;49.752;6.094;2022-11-20T13:40:36;9.20;99.90
13848;DHT22;6994;49.752;6.094;2022-11-20T13:46:00;9.10;99.90
13848;DHT22;6994;49.752;6.094;2022-11-20T13:48:29;9.10;99.90
13848;DHT22;6994;49.752;6.094;2022-11-20T13:53:42;9.10;99.90
13848;DHT22;6994;49.752;6.094;2022-11-20T13:58:45;9.10;99.90
13848;DHT22;6994;49.752;6.094;2022-11-20T14:01:13;9.10;99.90
13848;DHT22;6994;49.752;6.094;2022-11-20T14:03:38;9.00;99.90
13848;DHT22;6994;49.752;6.094;2022-11-20T14:06:10;9.00;99.90
13848;DHT22;6994;49.752;6.094;2022-11-20T14:08:46;9.00;99.90
13848;DHT22;6994;49.752;6.094;2022-11-20T14:11:19;8.90;99.90
13848;DHT22;6994;49.752;6.094;2022-11-20T14:14:04;8.90;99.90
13848;DHT22;6994;49.752;6.094;2022-11-20T14:16:34;8.80;99.90
13848;DHT22;6994;49.752;6.094;2022-11-20T14:21:50;8.60;99.90
13848;DHT22;6994;49.752;6.094;2022-11-20T14:24:20;8.50;99.90
13848;DHT22;6994;49.752;6.094;2022-11-20T14:26:46;8.40;99.90
13848;DHT22;6994;49.752;6.094;2022-11-20T14:29:14;8.40;99.90
13848;DHT22;6994;49.752;6.094;2022-11-20T14:31:40;8.30;99.90
13848;DHT22;6994;49.752;6.094;2022-11-20T14:34:21;8.20;99.90
13848;DHT22;6994;49.752;6.094;2022-11-20T14:36:47;8.20;99.90
13848;DHT22;6994;49.752;6.094;2022-11-20T14:39:20;8.30;99.90
13848;DHT22;6994;49.752;6.094;2022-11-20T14:41:50;8.60;99.90
13848;DHT22;6994;49.752;6.094;2022-11-20T14:44:19;8.60;99.90
13848;DHT22;6994;49.752;6.094;2022-11-20T14:46:46;8.50;99.90
13848;DHT22;6994;49.752;6.094;2022-11-20T14:49:13;8.50;99.90
13848;DHT22;6994;49.752;6.094;2022-11-20T14:51:40;8.30;99.90
13848;DHT22;6994;49.752;6.094;2022-11-20T14:54:12;7.90;99.90
13848;DHT22;6994;49.752;6.094;2022-11-20T14:56:39;7.90;99.90
13848;DHT22;6994;49.752;6.094;2022-11-20T14:59:06;7.80;99.90
13848;DHT22;6994;49.752;6.094;2022-11-20T15:01:33;7.70;99.90
13848;DHT22;6994;49.752;6.094;2022-11-20T15:04:01;7.60;99.90
13848;DHT22;6994;49.752;6.094;2022-11-20T15:06:27;7.50;99.90
13848;DHT22;6994;49.752;6.094;2022-11-20T15:08:55;7.60;99.90
13848;DHT22;6994;49.752;6.094;2022-11-20T15:11:25;7.60;99.90
13848;DHT22;6994;49.752;6.094;2022-11-20T15:13:49;7.60;99.90
13848;DHT22;6994;49.752;6.094;2022-11-20T15:16:20;7.50;99.90
13848;DHT22;6994;49.752;6.094;2022-11-20T15:18:46;7.60;99.90
13848;DHT22;6994;49.752;6.094;2022-11-20T15:21:14;7.60;99.90
13848;DHT22;6994;49.752;6.094;2022-11-20T15:23:41;7.70;99.90
13848;DHT22;6994;49.752;6.094;2022-11-20T15:26:08;7.70;99.90
13848;DHT22;6994;49.752;6.094;2022-11-20T15:28:44;7.80;99.90
13848;DHT22;6994;49.752;6.094;2022-11-20T15:31:15;7.80;99.90
13848;DHT22;6994;49.752;6.094;2022-11-20T15:33:41;7.60;99.90
13848;DHT22;6994;49.752;6.094;2022-11-20T15:36:09;7.70;99.90
13848;DHT22;6994;49.752;6.094;2022-11-20T15:38:36;7.70;99.90
13848;DHT22;6994;49.752;6.094;2022-11-20T15:41:03;7.60;99.90
13848;DHT22;6994;49.752;6.094;2022-11-20T15:43:30;7.50;99.90
13848;DHT22;6994;49.752;6.094;2022-11-20T15:46:01;7.50;99.90
13848;DHT22;6994;49.752;6.094;2022-11-20T15:48:29;7.50;99.90
13848;DHT22;6994;49.752;6.094;2022-11-20T15:53:30;7.50;99.90
13848;DHT22;6994;49.752;6.094;2022-11-20T15:55:57;7.40;99.90
13848;DHT22;6994;49.752;6.094;2022-11-20T15:58:25;7.30;99.90
13848;DHT22;6994;49.752;6.094;2022-11-20T16:00:52;7.20;99.90
13848;DHT22;6994;49.752;6.094;2022-11-20T16:03:19;7.40;99.90
13848;DHT22;6994;49.752;6.094;2022-11-20T16:05:46;7.40;99.90
13848;DHT22;6994;49.752;6.094;2022-11-20T16:08:13;7.30;99.90
13848;DHT22;6994;49.752;6.094;2022-11-20T16:10:41;7.30;99.90
13848;DHT22;6994;49.752;6.094;2022-11-20T16:13:15;7.40;99.90
13848;DHT22;6994;49.752;6.094;2022-11-20T16:16:00;7.30;99.90
13848;DHT22;6994;49.752;6.094;2022-11-20T16:18:26;7.50;99.90
13848;DHT22;6994;49.752;6.094;2022-11-20T16:20:54;7.50;99.90
13848;DHT22;6994;49.752;6.094;2022-11-20T16:23:21;7.60;99.90
13848;DHT22;6994;49.752;6.094;2022-11-20T16:25:48;7.50;99.90
13848;DHT22;6994;49.752;6.094;2022-11-20T16:28:15;7.50;99.90
13848;DHT22;6994;49.752;6.094;2022-11-20T16:30:42;7.40;99.90
13848;DHT22;6994;49.752;6.094;2022-11-20T16:33:14;7.50;99.90
13848;DHT22;6994;49.752;6.094;2022-11-20T16:35:37;7.50;99.90
13848;DHT22;6994;49.752;6.094;2022-11-20T16:38:04;7.60;99.90
13848;DHT22;6994;49.752;6.094;2022-11-20T16:40:31;7.60;99.90
13848;DHT22;6994;49.752;6.094;2022-11-20T16:43:06;7.50;99.90
13848;DHT22;6994;49.752;6.094;2022-11-20T16:45:26;7.50;99.90
13848;DHT22;6994;49.752;6.094;2022-11-20T16:47:53;7.40;99.90
13848;DHT22;6994;49.752;6.094;2022-11-20T16:50:20;7.40;99.90
13848;DHT22;6994;49.752;6.094;2022-11-20T16:52:47;7.30;99.90
13848;DHT22;6994;49.752;6.094;2022-11-20T16:55:14;7.30;99.90
13848;DHT22;6994;49.752;6.094;2022-11-20T16:57:42;7.30;99.90
13848;DHT22;6994;49.752;6.094;2022-11-20T17:00:09;7.30;99.90
13848;DHT22;6994;49.752;6.094;2022-11-20T17:02:36;7.30;99.90
13848;DHT22;6994;49.752;6.094;2022-11-20T17:05:03;7.30;99.90
13848;DHT22;6994;49.752;6.094;2022-11-20T17:07:30;7.30;99.90
13848;DHT22;6994;49.752;6.094;2022-11-20T17:09:58;7.30;99.90
13848;DHT22;6994;49.752;6.094;2022-11-20T17:12:26;7.30;99.90
13848;DHT22;6994;49.752;6.094;2022-11-20T17:14:54;7.30;99.90
13848;DHT22;6994;49.752;6.094;2022-11-20T17:17:21;7.30;99.90
13848;DHT22;6994;49.752;6.094;2022-11-20T17:19:49;7.30;99.90
13848;DHT22;6994;49.752;6.094;2022-11-20T17:22:17;7.30;99.90
13848;DHT22;6994;49.752;6.094;2022-11-20T17:24:45;7.30;99.90
13848;DHT22;6994;49.752;6.094;2022-11-20T17:27:13;7.30;99.90
13848;DHT22;6994;49.752;6.094;2022-11-20T17:29:41;7.30;99.90
13848;DHT22;6994;49.752;6.094;2022-11-20T17:32:08;7.30;99.90